createdAt,value
2023-04-18T00:01:21.470Z,99996.50
2023-04-18T00:03:52.121Z,100003.16
2023-04-18T00:06:22.725Z,100009.31
2023-04-18T00:08:50.076Z,100009.56
2023-04-18T00:11:17.254Z,100001.84
2023-04-18T00:13:44.432Z,100000.53
2023-04-18T00:16:17.641Z,100009.84
2023-04-18T00:18:44.948Z,100009.31
2023-04-18T00:21:12.073Z,100010.91
2023-04-18T00:23:39.208Z,100002.13
2023-04-18T00:26:06.414Z,100001.84
2023-04-18T00:28:33.672Z,100000.78
2023-04-18T00:31:00.941Z,100003.72
2023-04-18T00:33:28.172Z,100005.56
2023-04-18T00:35:55.925Z,99998.38
2023-04-18T00:38:23.165Z,100000.50
2023-04-18T00:40:51.469Z,99994.09
2023-04-18T00:43:18.627Z,100003.41
2023-04-18T00:45:46.227Z,99999.97
2023-04-18T00:48:13.538Z,100001.56
2023-04-18T00:50:40.946Z,99995.41
2023-04-18T00:53:10.263Z,99994.63
2023-04-18T00:55:38.811Z,100005.28
2023-04-18T00:58:06.126Z,99992.75
2023-04-18T01:00:33.384Z,100000.75
2023-04-18T01:03:00.706Z,99995.97
2023-04-18T01:05:28.468Z,99994.88
2023-04-18T01:07:56.023Z,99994.88
2023-04-18T01:10:23.155Z,99997.53
2023-04-18T01:12:50.239Z,99992.50
2023-04-18T01:15:17.394Z,99990.91
2023-04-18T01:17:44.648Z,99994.63
2023-04-18T01:20:12.681Z,99999.41
2023-04-18T01:22:39.866Z,99995.16
2023-04-18T01:25:08.650Z,99997.28
2023-04-18T01:27:35.880Z,99990.34
2023-04-18T01:30:03.235Z,99992.22
2023-04-18T01:32:30.398Z,99989.56
2023-04-18T01:34:57.697Z,99985.56
2023-04-18T01:37:24.828Z,99987.69
2023-04-18T01:39:52.103Z,99990.09
2023-04-18T01:42:19.230Z,99989.03
2023-04-18T01:44:46.887Z,99984.22
2023-04-18T01:47:14.156Z,99991.41
2023-04-18T01:49:41.417Z,100000.72
2023-04-18T01:52:08.608Z,100000.75
2023-04-18T01:54:35.984Z,99997.53
2023-04-18T01:57:03.241Z,100001.53
2023-04-18T01:59:30.414Z,100003.13
2023-04-18T02:01:58.719Z,100003.69
2023-04-18T02:04:25.991Z,99999.97
2023-04-18T02:06:53.651Z,100003.38
2023-04-18T02:09:21.722Z,100007.16
2023-04-18T02:11:48.851Z,100000.47
2023-04-18T02:14:16.173Z,100006.84
2023-04-18T02:16:43.380Z,100012.72
2023-04-18T02:19:11.104Z,100007.94
2023-04-18T02:21:38.352Z,100004.47
2023-04-18T02:24:05.613Z,100003.94
2023-04-18T02:26:32.732Z,100009.28
2023-04-18T02:28:59.945Z,100006.34
2023-04-18T02:31:27.136Z,100007.19
2023-04-18T02:33:54.232Z,100011.69
2023-04-18T02:36:21.404Z,100001.56
2023-04-18T02:38:48.497Z,100007.41
2023-04-18T02:41:15.729Z,100006.34
2023-04-18T02:43:42.946Z,100005.81
2023-04-18T02:46:10.224Z,100006.63
2023-04-18T02:48:37.425Z,99996.19
2023-04-18T02:51:06.184Z,100003.13
2023-04-18T02:53:34.789Z,100002.63
2023-04-18T02:56:02.220Z,100005.28
2023-04-18T02:58:29.548Z,99996.22
2023-04-18T03:00:58.191Z,99999.16
2023-04-18T03:03:26.056Z,99994.09
2023-04-18T03:05:53.309Z,100000.50
2023-04-18T03:08:21.031Z,100004.78
2023-04-18T03:10:48.133Z,100004.78
2023-04-18T03:13:16.945Z,100002.38
2023-04-18T03:15:44.182Z,100010.91
2023-04-18T03:18:11.415Z,100010.38
2023-04-18T03:20:38.611Z,100011.16
2023-04-18T03:23:05.738Z,100011.44
2023-04-18T03:25:33.000Z,100006.91
2023-04-18T03:28:00.148Z,100018.13
2023-04-18T03:30:27.405Z,100019.72
2023-04-18T03:32:55.365Z,100013.81
2023-04-18T03:35:35.700Z,100015.44
2023-04-18T03:38:02.868Z,100014.88
2023-04-18T03:40:30.493Z,100023.31
2023-04-18T03:42:59.169Z,100021.66
2023-04-18T03:45:26.945Z,100026.09
2023-04-18T03:47:54.653Z,100029.06
2023-04-18T03:50:22.364Z,100018.50
2023-04-18T03:52:50.337Z,100023.03
2023-04-18T03:55:19.688Z,100025.38
2023-04-18T03:57:48.100Z,100027.56
2023-04-18T04:00:16.622Z,100028.16
2023-04-18T04:02:44.916Z,100034.03
2023-04-18T04:05:12.291Z,100030.28
2023-04-18T04:07:39.494Z,100031.13
2023-04-18T04:10:07.396Z,100044.13
2023-04-18T04:12:35.046Z,100040.47
2023-04-18T04:15:02.353Z,100038.44
2023-04-18T04:17:29.777Z,100041.50
2023-04-18T04:19:56.893Z,100038.00
2023-04-18T04:22:24.014Z,100042.03
2023-04-18T04:24:51.899Z,100042.03
2023-04-18T04:27:19.155Z,100042.34
2023-04-18T04:29:46.281Z,100046.38
2023-04-18T04:32:14.221Z,100052.25
2023-04-18T04:34:41.417Z,100063.44
2023-04-18T04:37:08.619Z,100058.66
2023-04-18T04:39:35.772Z,100065.06
2023-04-18T04:42:02.998Z,100064.53
2023-04-18T04:44:30.296Z,100065.88
2023-04-18T04:46:58.312Z,100068.81
2023-04-18T04:49:25.444Z,100072.03
2023-04-18T04:51:52.926Z,100076.56
2023-04-18T04:54:21.561Z,100082.44
2023-04-18T04:56:48.798Z,100075.22
2023-04-18T04:59:15.933Z,100083.22
2023-04-18T05:01:43.053Z,100079.50
2023-04-18T05:04:10.500Z,100085.88
2023-04-18T05:06:39.594Z,100086.69
2023-04-18T05:09:07.432Z,100083.19
2023-04-18T05:11:34.789Z,100078.41
2023-04-18T05:14:01.953Z,100089.03
2023-04-18T05:16:29.453Z,100085.59
2023-04-18T05:18:56.893Z,100089.09
2023-04-18T05:21:24.129Z,100080.56
2023-04-18T05:23:51.583Z,100085.88
2023-04-18T05:26:19.039Z,100084.81
2023-04-18T05:28:46.239Z,100093.63
2023-04-18T05:31:13.644Z,100096.56
2023-04-18T05:33:40.841Z,100099.47
2023-04-18T05:36:08.157Z,100095.47
2023-04-18T05:38:35.575Z,100101.34
2023-04-18T05:41:02.808Z,100102.69
2023-04-18T05:43:30.392Z,100106.69
2023-04-18T05:45:57.999Z,100107.22
2023-04-18T05:48:25.326Z,100105.59
2023-04-18T05:50:52.505Z,100102.41
2023-04-18T05:53:19.653Z,100101.34
2023-04-18T05:55:47.216Z,100101.34
2023-04-18T05:58:15.125Z,100113.09
2023-04-18T06:00:42.943Z,100108.56
2023-04-18T06:03:11.363Z,100113.63
2023-04-18T06:05:38.898Z,100110.41
2023-04-18T06:08:06.396Z,100116.56
2023-04-18T06:10:33.627Z,100112.28
2023-04-18T06:13:00.915Z,100111.22
2023-04-18T06:15:28.395Z,100111.47
2023-04-18T06:17:58.979Z,100119.50
2023-04-18T06:20:26.208Z,100118.44
2023-04-18T06:22:53.402Z,100116.31
2023-04-18T06:25:20.832Z,100118.44
2023-04-18T06:27:52.068Z,100115.25
2023-04-18T06:30:19.229Z,100124.31
2023-04-18T06:32:46.433Z,100120.56
2023-04-18T06:35:13.674Z,100119.50
2023-04-18T06:37:40.787Z,100124.56
2023-04-18T06:40:08.936Z,100120.88
2023-04-18T06:42:36.121Z,100125.13
2023-04-18T06:45:03.708Z,100124.31
2023-04-18T06:47:31.013Z,100123.53
2023-04-18T06:49:58.198Z,100124.31
2023-04-18T06:52:25.398Z,100128.31
2023-04-18T06:54:52.609Z,100128.03
2023-04-18T06:57:20.066Z,100139.00
2023-04-18T06:59:47.370Z,100140.88
2023-04-18T07:02:14.620Z,100141.94
2023-04-18T07:04:41.969Z,100137.66
2023-04-18T07:07:09.217Z,100141.41
2023-04-18T07:09:36.506Z,100144.34
2023-04-18T07:12:03.671Z,100149.94
2023-04-18T07:14:32.819Z,100148.59
2023-04-18T07:17:01.560Z,100144.59
2023-04-18T07:19:29.143Z,100148.34
2023-04-18T07:21:56.756Z,100155.03
2023-04-18T07:24:23.832Z,100163.03
2023-04-18T07:26:53.710Z,100155.84
2023-04-18T07:29:21.980Z,100161.97
2023-04-18T07:34:23.353Z,100164.63
2023-04-18T07:36:50.666Z,100164.91
2023-04-18T07:39:18.125Z,100161.16
2023-04-18T07:41:45.212Z,100166.50
2023-04-18T07:44:12.614Z,100167.28
2023-04-18T07:46:40.351Z,100171.03
2023-04-18T07:49:07.536Z,100177.72
2023-04-18T07:51:34.676Z,100178.53
2023-04-18T07:54:01.950Z,100176.09
2023-04-18T07:56:29.114Z,100185.22
2023-04-18T07:58:56.360Z,100179.84
2023-04-18T08:01:23.466Z,100175.31
2023-04-18T08:03:51.147Z,100184.94
2023-04-18T08:06:18.386Z,100190.81
2023-04-18T08:08:45.750Z,100196.97
2023-04-18T08:11:13.414Z,100191.06
2023-04-18T08:13:40.782Z,100190.78
2023-04-18T08:16:08.464Z,100202.28
2023-04-18T08:18:36.321Z,100204.41
2023-04-18T08:21:03.663Z,100201.75
2023-04-18T08:23:30.849Z,100203.88
2023-04-18T08:25:57.920Z,100204.44
2023-04-18T08:28:25.061Z,100207.09
2023-04-18T08:30:52.778Z,100208.97
2023-04-18T08:33:21.828Z,100206.56
2023-04-18T08:35:49.492Z,100213.50
2023-04-18T08:38:17.792Z,100217.00
2023-04-18T08:40:45.485Z,100201.75
2023-04-18T08:43:14.425Z,100206.81
2023-04-18T08:45:42.647Z,100215.13
2023-04-18T08:48:14.103Z,100211.88
2023-04-18T08:50:41.533Z,100214.03
2023-04-18T08:53:09.223Z,100209.00
2023-04-18T08:55:36.660Z,100215.91
2023-04-18T08:58:04.398Z,100203.09
2023-04-18T09:00:31.513Z,100211.94
2023-04-18T09:02:59.310Z,100215.09
2023-04-18T09:05:27.000Z,100215.38
2023-04-18T09:07:55.294Z,100211.09
2023-04-18T09:10:31.167Z,100213.53
2023-04-18T09:13:01.997Z,100215.09
2023-04-18T09:15:29.897Z,100212.69
2023-04-18T09:18:00.170Z,100210.84
2023-04-18T09:20:35.363Z,100215.13
2023-04-18T09:23:11.226Z,100216.69
2023-04-18T09:25:43.301Z,100220.19
2023-04-18T09:28:41.096Z,100223.13
2023-04-18T09:31:10.879Z,100218.31
2023-04-18T09:33:39.843Z,100217.00
2023-04-18T09:36:27.256Z,100210.84
2023-04-18T09:38:57.012Z,100214.03
2023-04-18T09:41:24.686Z,100216.97
2023-04-18T09:44:12.360Z,100216.72
2023-04-18T09:46:41.438Z,100217.53
2023-04-18T09:49:10.426Z,100215.63
2023-04-18T09:51:41.271Z,100214.03
2023-04-18T09:54:11.040Z,100219.38
2023-04-18T09:56:45.716Z,100216.19
2023-04-18T09:59:16.343Z,100217.78
2023-04-18T10:01:44.522Z,100213.50
2023-04-18T10:04:12.503Z,100220.72
2023-04-18T10:06:43.297Z,100216.69
2023-04-18T10:09:10.771Z,100215.66
2023-04-18T10:11:38.399Z,100216.47
2023-04-18T10:14:09.321Z,100211.88
2023-04-18T10:16:37.920Z,100213.50
2023-04-18T10:19:25.913Z,100214.03
2023-04-18T10:21:58.874Z,100211.38
2023-04-18T10:24:50.710Z,100209.25
2023-04-18T10:27:18.610Z,100202.00
2023-04-18T10:29:53.550Z,100209.50
2023-04-18T10:32:23.592Z,100202.31
2023-04-18T10:34:54.019Z,100201.75
2023-04-18T10:37:21.096Z,100199.34
2023-04-18T10:39:57.467Z,100203.38
2023-04-18T10:42:43.108Z,100200.69
2023-04-18T10:45:20.124Z,100201.75
2023-04-18T10:47:47.710Z,100196.41
2023-04-18T10:50:15.792Z,100192.16
2023-04-18T10:52:45.355Z,100191.59
2023-04-18T10:55:17.028Z,100185.22
2023-04-18T10:57:45.217Z,100195.88
2023-04-18T11:00:15.964Z,100191.06
2023-04-18T11:02:51.954Z,100199.63
2023-04-18T11:05:29.223Z,100198.00
2023-04-18T11:07:56.555Z,100190.81
2023-04-18T11:10:25.844Z,100184.34
2023-04-18T11:12:54.819Z,100185.38
2023-04-18T11:15:24.089Z,100185.66
2023-04-18T11:18:02.334Z,100183.28
2023-04-18T11:20:37.680Z,100185.13
2023-04-18T11:23:18.713Z,100190.75
2023-04-18T11:25:45.964Z,100193.13
2023-04-18T11:28:13.133Z,100190.19
2023-04-18T11:30:41.438Z,100179.22
2023-04-18T11:33:09.706Z,100181.06
2023-04-18T11:35:38.844Z,100176.00
2023-04-18T11:38:06.588Z,100180.25
2023-04-18T11:40:34.499Z,100175.19
2023-04-18T11:43:06.065Z,100172.75
2023-04-18T11:45:33.160Z,100181.81
2023-04-18T11:48:00.769Z,100174.09
2023-04-18T11:50:27.966Z,100179.13
2023-04-18T11:52:56.572Z,100171.41
2023-04-18T11:55:25.106Z,100165.94
2023-04-18T11:57:56.897Z,100164.19
2023-04-18T12:00:38.287Z,100165.50
2023-04-18T12:03:07.686Z,100165.03
2023-04-18T12:05:38.129Z,100167.22
2023-04-18T12:08:10.281Z,100161.28
2023-04-18T12:10:38.191Z,100153.69
2023-04-18T12:13:08.857Z,100148.88
2023-04-18T12:15:40.496Z,100149.34
2023-04-18T12:18:08.186Z,100151.50
2023-04-18T12:20:44.930Z,100144.84
2023-04-18T12:23:30.443Z,100148.31
2023-04-18T12:26:05.909Z,100153.38
2023-04-18T12:28:34.513Z,100142.44
2023-04-18T12:31:02.431Z,100144.09
2023-04-18T12:33:30.397Z,100140.78
2023-04-18T12:35:57.666Z,100145.34
2023-04-18T12:38:24.925Z,100142.88
2023-04-18T12:40:52.570Z,100139.97
2023-04-18T12:43:19.913Z,100140.78
2023-04-18T12:45:47.577Z,100135.56
2023-04-18T12:48:14.859Z,100142.94
2023-04-18T12:50:42.146Z,100137.00
2023-04-18T12:53:09.549Z,100142.66
2023-04-18T12:55:36.901Z,100140.78
2023-04-18T12:58:04.321Z,100150.66
2023-04-18T13:00:32.346Z,100147.41
2023-04-18T13:03:00.091Z,100150.81
2023-04-18T13:05:32.071Z,100145.47
2023-04-18T13:10:32.273Z,100133.09
2023-04-18T13:12:59.613Z,100139.03
2023-04-18T13:15:26.876Z,100146.28
2023-04-18T13:17:55.248Z,100139.56
2023-04-18T13:20:22.688Z,100143.38
2023-04-18T13:22:49.936Z,100146.16
2023-04-18T13:25:17.192Z,100144.59
2023-04-18T13:27:44.414Z,100146.19
2023-04-18T13:30:11.928Z,100141.88
2023-04-18T13:32:39.421Z,100135.78
2023-04-18T13:35:07.485Z,100138.53
2023-04-18T13:37:36.653Z,100142.31
2023-04-18T13:40:05.154Z,100137.91
2023-04-18T13:42:52.461Z,100134.91
2023-04-18T13:45:19.784Z,100130.34
2023-04-18T13:47:47.180Z,100134.00
2023-04-18T13:50:14.454Z,100131.72
2023-04-18T13:52:41.874Z,100131.31
2023-04-18T13:55:09.568Z,100127.34
2023-04-18T13:57:36.963Z,100131.09
2023-04-18T14:00:05.316Z,100121.34
2023-04-18T14:02:32.661Z,100118.75
2023-04-18T14:05:00.409Z,100120.13
2023-04-18T14:07:28.238Z,100131.22
2023-04-18T14:09:55.689Z,100120.56
2023-04-18T14:12:23.072Z,100120.56
2023-04-18T14:14:50.747Z,100116.44
2023-04-18T14:17:18.209Z,100126.25
2023-04-18T14:19:45.594Z,100118.25
2023-04-18T14:22:12.915Z,100125.19
2023-04-18T14:24:40.241Z,100120.53
2023-04-18T14:27:07.868Z,100125.94
2023-04-18T14:29:35.262Z,100120.75
2023-04-18T14:32:02.585Z,100120.72
2023-04-18T14:34:31.209Z,100122.69
2023-04-18T14:37:00.635Z,100119.03
2023-04-18T14:39:27.993Z,100126.94
2023-04-18T14:41:55.659Z,100129.56
2023-04-18T14:44:23.082Z,100120.78
2023-04-18T14:46:50.239Z,100122.38
2023-04-18T14:49:17.552Z,100117.06
2023-04-18T14:51:44.660Z,100119.41
2023-04-18T14:54:11.930Z,100114.16
2023-04-18T14:56:39.031Z,100110.41
2023-04-18T14:59:06.166Z,100119.56
2023-04-18T15:01:33.337Z,100106.16
2023-04-18T15:04:00.754Z,100116.09
2023-04-18T15:06:30.676Z,100115.81
2023-04-18T15:08:57.860Z,100115.03
2023-04-18T15:11:25.011Z,100110.25
2023-04-18T15:13:52.158Z,100112.78
2023-04-18T15:16:19.328Z,100110.34
2023-04-18T15:18:46.555Z,100103.19
2023-04-18T15:21:13.641Z,100098.72
2023-04-18T15:23:40.789Z,100110.44
2023-04-18T15:26:08.453Z,100096.00
2023-04-18T15:28:35.606Z,100098.66
2023-04-18T15:31:02.765Z,100102.38
2023-04-18T15:33:29.963Z,100100.22
2023-04-18T15:35:57.110Z,100099.19
2023-04-18T15:38:24.239Z,100098.13
2023-04-18T15:40:51.445Z,100100.53
2023-04-18T15:43:18.575Z,100097.19
2023-04-18T15:45:46.031Z,100096.66
2023-04-18T15:48:13.266Z,100099.75
2023-04-18T15:50:40.928Z,100091.09
2023-04-18T15:53:08.176Z,100100.50
2023-04-18T15:55:38.953Z,100103.19
2023-04-18T15:58:06.067Z,100098.13
2023-04-18T16:00:33.186Z,100100.28
2023-04-18T16:03:00.542Z,100096.53
2023-04-18T16:05:27.832Z,100096.56
2023-04-18T16:07:55.008Z,100095.31
2023-04-18T16:10:22.591Z,100103.56
2023-04-18T16:12:49.700Z,100098.44
2023-04-18T16:15:16.886Z,100100.91
2023-04-18T16:17:44.050Z,100099.88
2023-04-18T16:20:11.416Z,100107.63
2023-04-18T16:22:38.591Z,100105.72
2023-04-18T16:25:06.538Z,100104.09
2023-04-18T16:27:33.664Z,100112.47
2023-04-18T16:30:00.915Z,100107.88
2023-04-18T16:32:28.188Z,100102.56
2023-04-18T16:34:55.706Z,100102.53
2023-04-18T16:37:23.099Z,100099.38
2023-04-18T16:39:50.600Z,100102.22
2023-04-18T16:42:20.633Z,100107.31
2023-04-18T16:44:47.911Z,100105.44
2023-04-18T16:47:15.028Z,100106.78
2023-04-18T16:49:42.464Z,100104.69
2023-04-18T16:52:09.647Z,100109.00
2023-04-18T16:54:37.202Z,100110.34
2023-04-18T16:57:04.475Z,100107.09
2023-04-18T16:59:31.920Z,100100.44
2023-04-18T17:01:59.444Z,100102.84
2023-04-18T17:04:26.862Z,100095.63
2023-04-18T17:06:54.748Z,100102.06
2023-04-18T17:09:22.353Z,100091.06
2023-04-18T17:11:49.724Z,100101.53
2023-04-18T17:14:17.283Z,100099.88
2023-04-18T17:16:44.593Z,100103.16
2023-04-18T17:19:11.959Z,100094.59
2023-04-18T17:21:39.333Z,100102.66
2023-04-18T17:24:06.814Z,100100.75
2023-04-18T17:26:35.401Z,100098.03
2023-04-18T17:29:03.164Z,100101.47
2023-04-18T17:31:31.027Z,100101.56
2023-04-18T17:33:59.256Z,100110.13
2023-04-18T17:36:26.402Z,100104.00
2023-04-18T17:38:53.604Z,100103.78
2023-04-18T17:41:21.489Z,100103.38
2023-04-18T17:43:48.995Z,100107.53
2023-04-18T17:46:16.732Z,100113.03
2023-04-18T17:48:44.178Z,100105.53
2023-04-18T17:51:11.563Z,100112.59
2023-04-18T17:53:38.718Z,100116.88
2023-04-18T17:56:06.198Z,100117.47
2023-04-18T17:58:33.549Z,100115.59
2023-04-18T18:01:00.714Z,100128.47
2023-04-18T18:03:46.766Z,100119.94
2023-04-18T18:06:16.056Z,100118.63
2023-04-18T18:08:43.629Z,100122.88
2023-04-18T18:11:11.452Z,100123.41
2023-04-18T18:13:38.861Z,100122.38
2023-04-18T18:16:06.789Z,100124.47
2023-04-18T18:18:34.354Z,100121.31
2023-04-18T18:21:01.593Z,100128.22
2023-04-18T18:23:29.179Z,100128.00
2023-04-18T18:25:56.782Z,100124.28
2023-04-18T18:28:23.970Z,100134.47
2023-04-18T18:30:54.341Z,100135.25
2023-04-18T18:33:21.627Z,100134.44
2023-04-18T18:35:48.892Z,100136.06
2023-04-18T18:38:16.276Z,100131.50
2023-04-18T18:40:52.233Z,100122.69
2023-04-18T18:43:19.352Z,100129.13
2023-04-18T18:45:46.720Z,100131.25
2023-04-18T18:48:14.380Z,100126.69
2023-04-18T18:50:41.562Z,100130.47
2023-04-18T18:53:08.706Z,100133.06
2023-04-18T18:55:35.883Z,100136.84
2023-04-18T18:58:02.944Z,100129.41
2023-04-18T19:00:30.080Z,100126.47
2023-04-18T19:02:57.632Z,100121.41
2023-04-18T19:05:25.222Z,100133.66
2023-04-18T19:07:52.447Z,100131.53
2023-04-18T19:10:19.694Z,100134.25
2023-04-18T19:12:47.433Z,100133.66
2023-04-18T19:15:14.623Z,100131.56
2023-04-18T19:17:41.855Z,100135.88
2023-04-18T19:20:09.319Z,100126.25
2023-04-18T19:22:37.900Z,100128.84
2023-04-18T19:25:05.385Z,100134.19
2023-04-18T19:27:32.625Z,100137.69
2023-04-18T19:29:59.852Z,100129.94
2023-04-18T19:32:27.268Z,100132.09
2023-04-18T19:34:54.543Z,100132.09
2023-04-18T19:37:21.794Z,100126.19
2023-04-18T19:39:48.963Z,100128.03
2023-04-18T19:42:16.252Z,100132.84
2023-04-18T19:44:43.459Z,100133.63
2023-04-18T19:47:10.640Z,100129.66
2023-04-18T19:49:37.904Z,100126.19
2023-04-18T19:52:05.322Z,100128.06
2023-04-18T19:54:33.525Z,100125.44
2023-04-18T19:57:00.663Z,100117.69
2023-04-18T19:59:28.231Z,100120.88
2023-04-18T20:01:55.776Z,100107.47
2023-04-18T20:04:24.013Z,100116.06
2023-04-18T20:06:51.270Z,100122.50
2023-04-18T20:09:18.451Z,100120.59
2023-04-18T20:11:49.023Z,100117.16
2023-04-18T20:14:16.203Z,100119.31
2023-04-18T20:16:43.385Z,100121.13
2023-04-18T20:19:12.703Z,100111.81
2023-04-18T20:21:40.045Z,100120.91
2023-04-18T20:24:07.713Z,100118.72
2023-04-18T20:26:34.883Z,100115.53
2023-04-18T20:29:02.052Z,100113.38
2023-04-18T20:31:29.432Z,100113.66
2023-04-18T20:33:56.527Z,100112.31
2023-04-18T20:36:23.675Z,100113.63
2023-04-18T20:38:50.834Z,100114.94
2023-04-18T20:41:17.936Z,100112.28
2023-04-18T20:43:45.300Z,100114.94
2023-04-18T20:46:12.468Z,100112.28
2023-04-18T20:48:40.113Z,100112.81
2023-04-18T20:51:07.289Z,100109.06
2023-04-18T20:53:34.442Z,100111.25
2023-04-18T20:56:02.289Z,100109.41
2023-04-18T20:58:29.901Z,100096.03
2023-04-18T21:00:57.200Z,100094.38
2023-04-18T21:03:43.080Z,100106.69
2023-04-18T21:06:23.564Z,100100.00
2023-04-18T21:09:10.116Z,100089.59
2023-04-18T21:11:37.294Z,100091.19
2023-04-18T21:14:04.566Z,100099.50
2023-04-18T21:16:31.835Z,100094.41
2023-04-18T21:18:59.161Z,100089.41
2023-04-18T21:21:26.342Z,100093.44
2023-04-18T21:23:53.459Z,100089.44
2023-04-18T21:26:20.672Z,100084.06
2023-04-18T21:29:03.832Z,100094.19
2023-04-18T21:31:32.470Z,100090.97
2023-04-18T21:34:02.144Z,100086.19
2023-04-18T21:36:30.213Z,100082.44
2023-04-18T21:38:59.928Z,100078.69
2023-04-18T21:41:27.612Z,100080.81
2023-04-18T21:43:55.089Z,100077.03
2023-04-18T21:46:22.375Z,100076.28
2023-04-18T21:48:49.926Z,100070.16
2023-04-18T21:51:17.223Z,100071.53
2023-04-18T21:53:44.553Z,100080.31
2023-04-18T21:56:11.993Z,100075.50
2023-04-18T21:58:39.239Z,100069.66
2023-04-18T22:01:06.572Z,100075.72
2023-04-18T22:03:34.376Z,100073.88
2023-04-18T22:06:03.740Z,100065.03
2023-04-18T22:08:30.994Z,100071.69
2023-04-18T22:10:58.847Z,100062.59
2023-04-18T22:13:27.840Z,100069.06
2023-04-18T22:15:56.173Z,100076.31
2023-04-18T22:18:23.421Z,100066.97
2023-04-18T22:20:50.562Z,100067.56
2023-04-18T22:23:17.761Z,100064.09
2023-04-18T22:25:45.028Z,100067.53
2023-04-18T22:28:12.379Z,100068.06
2023-04-18T22:30:39.767Z,100068.59
2023-04-18T22:33:06.986Z,100058.44
2023-04-18T22:35:34.332Z,100058.97
2023-04-18T22:38:01.536Z,100054.38
2023-04-18T22:40:28.917Z,100056.81
2023-04-18T22:42:56.130Z,100054.69
2023-04-18T22:45:23.360Z,100052.81
2023-04-18T22:47:50.614Z,100044.22
2023-04-18T22:50:20.848Z,100048.25
2023-04-18T22:52:48.029Z,100042.69
2023-04-18T22:55:15.232Z,100042.66
2023-04-18T22:57:42.380Z,100043.97
2023-04-18T23:00:10.082Z,100037.56
2023-04-18T23:02:37.530Z,100031.91
2023-04-18T23:05:05.854Z,100044.44
2023-04-18T23:07:33.062Z,100035.94
2023-04-18T23:10:00.544Z,100027.09
2023-04-18T23:12:27.729Z,100025.00
2023-04-18T23:14:54.960Z,100023.69
2023-04-18T23:17:22.173Z,100024.78
2023-04-18T23:19:49.439Z,100023.13
2023-04-18T23:22:16.650Z,100017.53
2023-04-18T23:24:44.846Z,100017.81
2023-04-18T23:27:12.078Z,100016.50
2023-04-18T23:29:39.272Z,100012.44
2023-04-18T23:32:06.445Z,100009.53
2023-04-18T23:34:33.850Z,100009.81
2023-04-18T23:37:01.078Z,100007.66
2023-04-18T23:39:28.290Z,100012.53
2023-04-18T23:41:55.496Z,100008.25
2023-04-18T23:44:23.014Z,100005.06
2023-04-18T23:46:50.234Z,100002.91
2023-04-18T23:49:17.452Z,100001.00
2023-04-18T23:51:44.640Z,100000.94
2023-04-18T23:54:11.917Z,99997.72
2023-04-18T23:56:39.193Z,99990.56
2023-04-18T23:59:06.634Z,99991.94
